createdAt,value
2022-08-10T00:00:38.980Z,0.00
2022-08-10T00:01:38.987Z,0.00
2022-08-10T00:02:38.942Z,0.00
2022-08-10T00:03:38.949Z,0.00
2022-08-10T00:04:38.916Z,0.00
2022-08-10T00:05:43.209Z,0.00
2022-08-10T00:06:39.903Z,0.00
2022-08-10T00:07:38.897Z,0.00
2022-08-10T00:08:38.873Z,0.00
2022-08-10T00:09:50.975Z,0.00
2022-08-10T00:10:39.836Z,0.00
2022-08-10T00:11:38.842Z,0.00
2022-08-10T00:12:54.466Z,0.00
2022-08-10T00:13:39.923Z,0.00
2022-08-10T00:14:38.793Z,0.00
2022-08-10T00:15:44.371Z,0.00
2022-08-10T00:16:39.750Z,0.00
2022-08-10T00:17:38.753Z,0.00
2022-08-10T00:18:38.735Z,0.00
2022-08-10T00:20:02.180Z,0.00
2022-08-10T00:20:39.712Z,0.00
2022-08-10T00:21:38.683Z,0.00
2022-08-10T00:22:38.670Z,0.00
2022-08-10T00:23:39.676Z,0.00
2022-08-10T00:24:43.063Z,0.00
2022-08-10T00:25:38.647Z,0.00
2022-08-10T00:27:51.742Z,0.00
2022-08-10T00:27:52.935Z,0.00
2022-08-10T00:28:39.605Z,0.00
2022-08-10T00:29:38.574Z,0.00
2022-08-10T00:30:38.565Z,0.00
2022-08-10T00:31:57.955Z,0.00
2022-08-10T00:32:39.551Z,0.00
2022-08-10T00:33:38.527Z,0.00
2022-08-10T00:34:38.506Z,0.00
2022-08-10T00:35:38.628Z,0.00
2022-08-10T00:36:38.477Z,0.00
2022-08-10T00:37:38.480Z,0.00
2022-08-10T00:38:38.762Z,0.00
2022-08-10T00:39:39.468Z,0.00
2022-08-10T00:40:38.432Z,0.00
2022-08-10T00:41:38.519Z,0.00
2022-08-10T00:42:38.398Z,0.00
2022-08-10T00:43:38.407Z,0.00
2022-08-10T00:44:38.371Z,0.00
2022-08-10T00:45:38.374Z,0.00
2022-08-10T00:46:38.354Z,0.00
2022-08-10T00:47:38.339Z,0.00
2022-08-10T00:48:38.310Z,0.00
2022-08-10T00:49:38.315Z,0.00
2022-08-10T00:50:38.304Z,0.00
2022-08-10T00:51:44.369Z,0.00
2022-08-10T00:52:39.277Z,0.00
2022-08-10T00:53:38.252Z,0.00
2022-08-10T00:54:38.233Z,0.00
2022-08-10T00:57:12.300Z,0.00
2022-08-10T00:57:17.110Z,0.00
2022-08-10T00:57:39.236Z,0.00
2022-08-10T00:58:38.195Z,0.00
2022-08-10T00:59:38.165Z,0.00
2022-08-10T01:00:39.164Z,0.00
2022-08-10T01:02:08.380Z,0.00
2022-08-10T01:02:39.356Z,0.00
2022-08-10T01:04:54.403Z,0.00
2022-08-10T01:04:58.606Z,0.00
2022-08-10T01:05:51.669Z,0.00
2022-08-10T01:06:39.080Z,0.00
2022-08-10T01:07:38.057Z,0.00
2022-08-10T01:08:38.052Z,0.00
2022-08-10T01:09:38.139Z,0.00
2022-08-10T01:10:38.029Z,0.00
2022-08-10T01:12:34.137Z,0.00
2022-08-10T01:12:41.639Z,0.00
2022-08-10T01:13:37.992Z,0.00
2022-08-10T01:14:37.974Z,0.00
2022-08-10T01:15:38.061Z,0.00
2022-08-10T01:16:37.942Z,0.00
2022-08-10T01:17:50.384Z,0.00
2022-08-10T01:18:38.901Z,0.00
2022-08-10T01:19:37.906Z,0.00
2022-08-10T01:20:37.887Z,0.00
2022-08-10T01:21:37.862Z,0.00
2022-08-10T01:22:37.843Z,0.00
2022-08-10T01:23:37.846Z,0.00
2022-08-10T01:24:37.814Z,0.00
2022-08-10T01:26:12.014Z,0.00
2022-08-10T01:26:40.917Z,0.00
2022-08-10T01:27:37.783Z,0.00
2022-08-10T01:28:37.778Z,0.00
2022-08-10T01:29:37.751Z,0.00
2022-08-10T01:30:37.736Z,0.00
2022-08-10T01:31:37.740Z,0.00
2022-08-10T01:32:37.706Z,0.00
2022-08-10T01:33:58.037Z,0.00
2022-08-10T01:34:38.690Z,0.00
2022-08-10T01:35:37.667Z,0.00
2022-08-10T01:36:37.654Z,0.00
2022-08-10T01:37:37.660Z,0.00
2022-08-10T01:38:37.640Z,0.00
2022-08-10T01:39:37.659Z,0.00
2022-08-10T01:40:37.614Z,0.00
2022-08-10T01:41:46.646Z,0.00
2022-08-10T01:42:38.569Z,0.00
2022-08-10T01:43:37.581Z,0.00
2022-08-10T01:44:37.539Z,0.00
2022-08-10T01:45:45.278Z,0.00
2022-08-10T01:46:38.525Z,0.00
2022-08-10T01:47:37.621Z,0.00
2022-08-10T01:48:37.505Z,0.00
2022-08-10T01:49:37.481Z,0.00
2022-08-10T01:50:53.301Z,0.00
2022-08-10T01:51:38.466Z,0.00
2022-08-10T01:52:37.447Z,0.00
2022-08-10T01:53:41.175Z,0.00
2022-08-10T01:54:37.403Z,0.00
2022-08-10T01:55:37.453Z,0.00
2022-08-10T01:56:37.385Z,0.00
2022-08-10T01:57:37.389Z,0.00
2022-08-10T01:58:37.368Z,0.00
2022-08-10T01:59:37.345Z,0.00
2022-08-10T02:00:37.339Z,0.00
2022-08-10T02:01:37.346Z,0.00
2022-08-10T02:02:37.569Z,0.00
2022-08-10T02:04:04.427Z,0.00
2022-08-10T02:04:38.278Z,0.00
2022-08-10T02:05:37.279Z,0.00
2022-08-10T02:06:37.260Z,0.00
2022-08-10T02:07:38.819Z,0.00
2022-08-10T02:08:37.231Z,0.00
2022-08-10T02:09:37.218Z,0.00
2022-08-10T02:10:37.198Z,0.00
2022-08-10T02:12:06.317Z,0.00
2022-08-10T02:12:38.168Z,0.00
2022-08-10T02:13:37.173Z,0.00
2022-08-10T02:14:37.153Z,0.00
2022-08-10T02:15:37.129Z,0.00
2022-08-10T02:16:37.131Z,0.00
2022-08-10T02:17:59.876Z,0.00
2022-08-10T02:18:38.089Z,0.00
2022-08-10T02:19:37.132Z,0.00
2022-08-10T02:20:37.070Z,0.00
2022-08-10T02:21:37.064Z,0.00
2022-08-10T02:22:39.131Z,0.00
2022-08-10T02:23:37.023Z,0.00
2022-08-10T02:24:37.003Z,0.00
2022-08-10T02:25:40.737Z,0.00
2022-08-10T02:26:37.988Z,0.00
2022-08-10T02:27:36.973Z,0.00
2022-08-10T02:28:36.967Z,0.00
2022-08-10T02:29:36.945Z,0.00
2022-08-10T02:30:37.924Z,0.00
2022-08-10T02:31:36.939Z,0.00
2022-08-10T02:32:38.282Z,0.00
2022-08-10T02:33:38.087Z,0.00
2022-08-10T02:34:36.889Z,0.00
2022-08-10T02:35:55.177Z,0.00
2022-08-10T02:36:37.861Z,0.00
2022-08-10T02:37:36.837Z,0.00
2022-08-10T02:38:57.526Z,0.00
2022-08-10T02:39:37.892Z,0.00
2022-08-10T02:45:02.364Z,0.00
2022-08-10T02:45:12.730Z,0.00
2022-08-10T02:45:17.811Z,0.00
2022-08-10T02:45:20.485Z,0.00
2022-08-10T02:45:29.370Z,0.00
2022-08-10T02:45:38.245Z,0.00
2022-08-10T02:46:36.743Z,0.00
2022-08-10T02:47:51.337Z,0.00
2022-08-10T02:48:37.702Z,0.00
2022-08-10T02:49:36.680Z,0.00
2022-08-10T02:50:36.663Z,0.00
2022-08-10T02:52:07.853Z,0.00
2022-08-10T02:52:37.688Z,0.00
2022-08-10T02:53:55.179Z,0.00
2022-08-10T02:54:37.616Z,0.00
2022-08-10T02:55:36.592Z,0.00
2022-08-10T02:56:36.582Z,0.00
2022-08-10T02:57:36.586Z,0.00
2022-08-10T02:58:37.567Z,0.00
2022-08-10T02:59:39.836Z,0.00
2022-08-10T03:00:36.555Z,0.00
2022-08-10T03:01:36.574Z,0.00
2022-08-10T03:02:36.909Z,0.00
2022-08-10T03:03:36.507Z,0.00
2022-08-10T03:04:55.976Z,0.00
2022-08-10T03:05:37.478Z,0.00
2022-08-10T03:06:36.471Z,0.00
2022-08-10T03:07:44.616Z,0.00
2022-08-10T03:08:37.431Z,0.00
2022-08-10T03:09:36.414Z,0.00
2022-08-10T03:10:39.121Z,0.00
2022-08-10T03:12:35.595Z,0.00
2022-08-10T03:12:38.869Z,0.00
2022-08-10T03:13:36.373Z,0.00
2022-08-10T03:14:36.352Z,1.00
2022-08-10T03:15:36.332Z,1.00
2022-08-10T03:16:36.324Z,1.00
2022-08-10T03:17:36.301Z,1.00
2022-08-10T03:18:36.290Z,0.00
2022-08-10T03:20:34.753Z,0.00
2022-08-10T03:20:40.412Z,0.00
2022-08-10T03:21:36.264Z,0.00
2022-08-10T03:22:36.375Z,2.00
2022-08-10T03:23:36.229Z,2.00
2022-08-10T03:24:36.215Z,2.00
2022-08-10T03:25:36.201Z,4.00
2022-08-10T03:26:36.182Z,0.00
2022-08-10T03:27:36.186Z,0.00
2022-08-10T03:28:36.166Z,4.00
2022-08-10T03:30:31.811Z,2.00
2022-08-10T03:30:37.123Z,2.00
2022-08-10T03:31:36.135Z,1.00
2022-08-10T03:32:36.232Z,5.00
2022-08-10T03:33:36.137Z,7.00
2022-08-10T03:34:36.079Z,9.00
2022-08-10T03:35:36.078Z,18.00
2022-08-10T03:36:40.049Z,14.00
2022-08-10T03:37:37.035Z,10.00
2022-08-10T03:38:36.016Z,15.00
2022-08-10T03:39:36.083Z,21.00
2022-08-10T03:40:46.398Z,24.00
2022-08-10T03:41:37.000Z,16.00
2022-08-10T03:42:36.200Z,31.00
2022-08-10T03:43:35.958Z,34.00
2022-08-10T03:44:35.940Z,41.00
2022-08-10T03:45:54.124Z,52.00
2022-08-10T03:46:36.921Z,61.00
2022-08-10T03:47:35.899Z,68.00
2022-08-10T03:48:48.725Z,75.00
2022-08-10T03:49:36.998Z,87.00
2022-08-10T03:50:45.770Z,96.00
2022-08-10T03:51:36.863Z,109.00
2022-08-10T03:52:35.959Z,125.00
2022-08-10T03:54:02.965Z,134.00
2022-08-10T03:54:36.814Z,150.00
2022-08-10T03:56:29.548Z,172.00
2022-08-10T03:56:36.818Z,185.00
2022-08-10T03:57:35.760Z,207.00
2022-08-10T03:58:36.742Z,229.00
2022-08-10T03:59:35.746Z,248.00
2022-08-10T04:00:35.767Z,270.00
2022-08-10T04:02:41.943Z,302.00
2022-08-10T04:02:45.761Z,315.00
2022-08-10T04:03:36.696Z,345.00
2022-08-10T04:04:35.654Z,363.00
2022-08-10T04:05:38.141Z,394.00
2022-08-10T04:06:35.766Z,425.00
2022-08-10T04:07:35.625Z,451.00
2022-08-10T04:08:35.618Z,476.00
2022-08-10T04:09:54.706Z,509.00
2022-08-10T04:10:36.575Z,536.00
2022-08-10T04:11:35.587Z,569.00
2022-08-10T04:12:35.622Z,599.00
2022-08-10T04:13:35.560Z,627.00
2022-08-10T04:14:49.822Z,653.00
2022-08-10T04:15:36.517Z,678.00
2022-08-10T04:16:35.500Z,709.00
2022-08-10T04:17:57.502Z,743.00
2022-08-10T04:18:36.490Z,788.00
2022-08-10T04:19:35.458Z,834.00
2022-08-10T04:20:35.462Z,876.00
2022-08-10T04:21:35.429Z,919.00
2022-08-10T04:22:35.547Z,949.00
2022-08-10T04:23:35.413Z,975.00
2022-08-10T04:24:35.390Z,1004.00
2022-08-10T04:25:35.395Z,1037.00
2022-08-10T04:26:35.383Z,1069.00
2022-08-10T04:27:35.385Z,1092.00
2022-08-10T04:28:35.353Z,1117.00
2022-08-10T04:29:35.322Z,1151.00
2022-08-10T04:30:35.311Z,1185.00
2022-08-10T04:31:35.306Z,1220.00
2022-08-10T04:32:35.447Z,1240.00
2022-08-10T04:33:35.373Z,1270.00
2022-08-10T04:34:35.254Z,1302.00
2022-08-10T04:35:35.256Z,1342.00
2022-08-10T04:36:35.223Z,1382.00
2022-08-10T04:37:35.217Z,1409.00
2022-08-10T04:38:35.218Z,1427.00
2022-08-10T04:39:35.353Z,1444.00
2022-08-10T04:40:35.187Z,1478.00
2022-08-10T04:41:35.155Z,1519.00
2022-08-10T04:42:35.298Z,1564.00
2022-08-10T04:43:35.139Z,1612.00
2022-08-10T04:44:35.118Z,1656.00
2022-08-10T04:45:48.716Z,1700.00
2022-08-10T04:46:55.268Z,1752.00
2022-08-10T04:47:57.917Z,1813.00
2022-08-10T04:48:40.336Z,1865.00
2022-08-10T04:49:55.251Z,1909.00
2022-08-10T04:50:36.182Z,1952.00
2022-08-10T04:51:35.018Z,1998.00
2022-08-10T04:52:35.142Z,2046.00
2022-08-10T04:54:04.825Z,2094.00
2022-08-10T04:54:35.980Z,2129.00
2022-08-10T04:55:34.973Z,2170.00
2022-08-10T04:56:35.075Z,2216.00
2022-08-10T04:57:34.945Z,2263.00
2022-08-10T04:58:34.943Z,2317.00
2022-08-10T04:59:34.910Z,2366.00
2022-08-10T05:00:34.946Z,2416.00
2022-08-10T05:02:28.216Z,2457.00
2022-08-10T05:02:35.887Z,2488.00
2022-08-10T05:03:34.867Z,2512.00
2022-08-10T05:04:39.234Z,2538.00
2022-08-10T05:05:34.823Z,2569.00
2022-08-10T05:06:34.814Z,2588.00
2022-08-10T05:07:41.828Z,2619.00
2022-08-10T05:08:35.791Z,2661.00
2022-08-10T05:10:03.463Z,2703.00
2022-08-10T05:10:35.777Z,2747.00
2022-08-10T05:11:34.744Z,2786.00
2022-08-10T05:12:36.531Z,2821.00
2022-08-10T05:13:34.715Z,2841.00
2022-08-10T05:14:34.705Z,2861.00
2022-08-10T05:15:34.740Z,2921.00
2022-08-10T05:16:34.677Z,2980.00
2022-08-10T05:17:34.676Z,3051.00
2022-08-10T05:18:34.669Z,3125.00
2022-08-10T05:20:02.792Z,3198.00
2022-08-10T05:20:35.676Z,3266.00
2022-08-10T05:22:03.206Z,3320.00
2022-08-10T05:22:36.033Z,3384.00
2022-08-10T05:23:34.593Z,3454.00
2022-08-10T05:24:34.569Z,3530.00
2022-08-10T05:25:38.143Z,3569.00
2022-08-10T05:26:36.940Z,3625.00
2022-08-10T05:27:35.520Z,3688.00
2022-08-10T05:28:35.327Z,3717.00
2022-08-10T05:29:34.498Z,3780.00
2022-08-10T05:30:34.490Z,3793.00
2022-08-10T05:31:34.484Z,3816.00
2022-08-10T05:32:58.269Z,3835.00
2022-08-10T05:33:35.575Z,3900.00
2022-08-10T05:34:34.455Z,3878.00
2022-08-10T05:35:56.509Z,3780.00
2022-08-10T05:36:35.412Z,3867.00
2022-08-10T05:38:12.695Z,3963.00
2022-08-10T05:38:35.397Z,3980.00
2022-08-10T05:39:34.412Z,4002.00
2022-08-10T05:40:34.369Z,4038.00
2022-08-10T05:41:34.334Z,4092.00
2022-08-10T05:42:34.408Z,4100.00
2022-08-10T05:43:34.327Z,4090.00
2022-08-10T05:44:34.304Z,4071.00
2022-08-10T05:45:34.328Z,4064.00
2022-08-10T05:46:35.289Z,4062.00
2022-08-10T05:48:54.414Z,4026.00
2022-08-10T05:48:56.966Z,4058.00
2022-08-10T05:49:35.237Z,4012.00
2022-08-10T05:50:34.228Z,3932.00
2022-08-10T05:51:34.230Z,3924.00
2022-08-10T05:52:34.294Z,3984.00
2022-08-10T05:54:01.207Z,4143.00
2022-08-10T05:54:35.168Z,4216.00
2022-08-10T05:55:34.162Z,4337.00
2022-08-10T05:56:56.612Z,4393.00
2022-08-10T05:57:35.144Z,4431.00
2022-08-10T05:58:34.132Z,4446.00
2022-08-10T06:00:35.699Z,4462.00
2022-08-10T06:00:40.759Z,4518.00
2022-08-10T06:01:35.139Z,4572.00
2022-08-10T06:02:35.768Z,4580.00
2022-08-10T06:03:34.055Z,4565.00
2022-08-10T06:04:34.032Z,4519.00
2022-08-10T06:05:34.033Z,4535.00
2022-08-10T06:06:34.026Z,4554.00
2022-08-10T06:07:34.037Z,4588.00
2022-08-10T06:08:33.985Z,4638.00
2022-08-10T06:09:33.976Z,4657.00
2022-08-10T06:10:35.534Z,4700.00
2022-08-10T06:12:28.210Z,4715.00
2022-08-10T06:12:54.275Z,4702.00
2022-08-10T06:14:12.459Z,4749.00
2022-08-10T06:14:34.895Z,4811.00
2022-08-10T06:15:51.878Z,4835.00
2022-08-10T06:16:34.983Z,4859.00
2022-08-10T06:17:33.861Z,4900.00
2022-08-10T06:18:33.861Z,4932.00
2022-08-10T06:19:33.817Z,4979.00
2022-08-10T06:20:36.126Z,5072.00
2022-08-10T06:21:33.798Z,5066.00
2022-08-10T06:22:33.859Z,5067.00
2022-08-10T06:23:33.811Z,5125.00
2022-08-10T06:24:33.757Z,5184.00
2022-08-10T06:26:34.745Z,5268.00
2022-08-10T06:27:34.515Z,5334.00
2022-08-10T06:28:33.721Z,5389.00
2022-08-10T06:29:34.064Z,5448.00
2022-08-10T06:30:33.678Z,5495.00
2022-08-10T06:31:48.869Z,5567.00
2022-08-10T06:32:34.738Z,5577.00
2022-08-10T06:33:33.646Z,5604.00
2022-08-10T06:34:33.647Z,5608.00
2022-08-10T06:35:33.602Z,5601.00
2022-08-10T06:36:34.081Z,5557.00
2022-08-10T06:37:33.582Z,5496.00
2022-08-10T06:38:33.572Z,5499.00
2022-08-10T06:39:35.344Z,5560.00
2022-08-10T06:40:33.558Z,5533.00
2022-08-10T06:42:14.820Z,5492.00
2022-08-10T06:42:34.645Z,5542.00
2022-08-10T06:43:33.508Z,5557.00
2022-08-10T06:44:33.486Z,5568.00
2022-08-10T06:45:33.601Z,5686.00
2022-08-10T06:46:33.480Z,5722.00
2022-08-10T06:47:33.445Z,5764.00
2022-08-10T06:48:33.451Z,5813.00
2022-08-10T06:49:33.420Z,5854.00
2022-08-10T06:50:34.993Z,5903.00
2022-08-10T06:51:34.431Z,5936.00
2022-08-10T06:52:33.447Z,5965.00
2022-08-10T06:53:52.159Z,5963.00
2022-08-10T06:54:34.372Z,5970.00
2022-08-10T06:55:49.827Z,5833.00
2022-08-10T06:56:38.229Z,5545.00
2022-08-10T06:57:34.357Z,5660.00
2022-08-10T06:58:37.244Z,5930.00
2022-08-10T06:59:33.279Z,5997.00
2022-08-10T07:00:34.224Z,5992.00
2022-08-10T07:01:33.285Z,6017.00
2022-08-10T07:02:33.245Z,6090.00
2022-08-10T07:03:33.375Z,6147.00
2022-08-10T07:04:33.848Z,6154.00
2022-08-10T07:05:33.208Z,6164.00
2022-08-10T07:06:33.206Z,6181.00
2022-08-10T07:07:33.636Z,6177.00
2022-08-10T07:08:33.176Z,6215.00
2022-08-10T07:09:33.146Z,6207.00
2022-08-10T07:10:41.264Z,6207.00
2022-08-10T07:11:34.129Z,6222.00
2022-08-10T07:12:33.155Z,6157.00
2022-08-10T07:14:15.824Z,6130.00
2022-08-10T07:14:34.116Z,6074.00
2022-08-10T07:15:58.192Z,6199.00
2022-08-10T07:16:34.057Z,6081.00
2022-08-10T07:17:38.654Z,5931.00
2022-08-10T07:18:34.041Z,6016.00
2022-08-10T07:19:33.008Z,6215.00
2022-08-10T07:20:33.122Z,6237.00
2022-08-10T07:21:32.982Z,6260.00
2022-08-10T07:23:05.841Z,6234.00
2022-08-10T07:23:57.350Z,6177.00
2022-08-10T07:24:33.949Z,6031.00
2022-08-10T07:25:32.944Z,6130.00
2022-08-10T07:26:33.045Z,6086.00
2022-08-10T07:27:58.315Z,6282.00
2022-08-10T07:28:33.907Z,6049.00
2022-08-10T07:29:53.981Z,6302.00
2022-08-10T07:30:33.886Z,6274.00
2022-08-10T07:31:56.510Z,6281.00
2022-08-10T07:32:33.850Z,6401.00
2022-08-10T07:33:32.839Z,6393.00
2022-08-10T07:34:32.828Z,6414.00
2022-08-10T07:35:41.485Z,6429.00
2022-08-10T07:36:33.800Z,5786.00
2022-08-10T07:37:32.774Z,6466.00
2022-08-10T07:38:32.757Z,6201.00
2022-08-10T07:39:58.462Z,6350.00
2022-08-10T07:40:33.883Z,6433.00
2022-08-10T07:41:32.730Z,6428.00
2022-08-10T07:42:32.796Z,6438.00
2022-08-10T07:43:32.688Z,6452.00
2022-08-10T07:44:32.678Z,6462.00
2022-08-10T07:45:32.672Z,6471.00
2022-08-10T07:46:32.664Z,6468.00
2022-08-10T07:47:54.074Z,6481.00
2022-08-10T07:48:33.635Z,6466.00
2022-08-10T07:49:32.600Z,6490.00
2022-08-10T07:50:35.395Z,6503.00
2022-08-10T07:51:32.587Z,6525.00
2022-08-10T07:52:32.592Z,6538.00
2022-08-10T07:53:32.567Z,6539.00
2022-08-10T07:54:32.554Z,6561.00
2022-08-10T07:56:05.593Z,6565.00
2022-08-10T07:56:48.405Z,6581.00
2022-08-10T07:57:38.255Z,6592.00
2022-08-10T07:58:33.484Z,6620.00
2022-08-10T07:59:32.478Z,6627.00
2022-08-10T08:00:32.469Z,6645.00
2022-08-10T08:01:32.497Z,6634.00
2022-08-10T08:02:33.252Z,6654.00
2022-08-10T08:03:32.462Z,6661.00
2022-08-10T08:04:32.406Z,6673.00
2022-08-10T08:05:58.030Z,6689.00
2022-08-10T08:06:33.397Z,6686.00
2022-08-10T08:07:32.358Z,6686.00
2022-08-10T08:08:32.362Z,6709.00
2022-08-10T08:09:32.448Z,6726.00
2022-08-10T08:10:32.321Z,6729.00
2022-08-10T08:11:36.122Z,6736.00
2022-08-10T08:12:37.184Z,6750.00
2022-08-10T08:13:33.297Z,6766.00
2022-08-10T08:14:32.284Z,6777.00
2022-08-10T08:16:17.581Z,6770.00
2022-08-10T08:16:33.242Z,6786.00
2022-08-10T08:17:35.607Z,6800.00
2022-08-10T08:18:32.496Z,6817.00
2022-08-10T08:19:37.062Z,6827.00
2022-08-10T08:20:33.240Z,6834.00
2022-08-10T08:24:05.895Z,6847.00
2022-08-10T08:24:05.992Z,6857.00
2022-08-10T08:24:30.563Z,6842.00
2022-08-10T08:24:34.458Z,6875.00
2022-08-10T08:25:32.130Z,6883.00
2022-08-10T08:26:32.240Z,6894.00
2022-08-10T08:27:32.094Z,6901.00
2022-08-10T08:28:32.101Z,6904.00
2022-08-10T08:29:32.067Z,6903.00
2022-08-10T08:30:32.058Z,6913.00
2022-08-10T08:31:32.051Z,6936.00
2022-08-10T08:32:32.031Z,6929.00
2022-08-10T08:33:43.707Z,6961.00
2022-08-10T08:34:33.017Z,6962.00
2022-08-10T08:35:31.989Z,6991.00
2022-08-10T08:36:31.987Z,6998.00
2022-08-10T08:38:33.127Z,7011.00
2022-08-10T08:38:34.907Z,7027.00
2022-08-10T08:39:32.080Z,7044.00
2022-08-10T08:40:31.912Z,7051.00
2022-08-10T08:41:31.915Z,7055.00
2022-08-10T08:42:31.954Z,7076.00
2022-08-10T08:43:31.944Z,7093.00
2022-08-10T08:44:34.843Z,6947.00
2022-08-10T08:45:31.862Z,6899.00
2022-08-10T08:46:31.834Z,7098.00
2022-08-10T08:48:03.525Z,7099.00
2022-08-10T08:48:32.832Z,7092.00
2022-08-10T08:50:04.880Z,7085.00
2022-08-10T08:50:32.785Z,7116.00
2022-08-10T08:52:06.077Z,7130.00
2022-08-10T08:52:32.832Z,7184.00
2022-08-10T08:54:00.935Z,7189.00
2022-08-10T08:54:32.948Z,7136.00
2022-08-10T08:56:03.611Z,7064.00
2022-08-10T08:56:32.713Z,7223.00
2022-08-10T08:57:49.684Z,7296.00
2022-08-10T08:58:32.809Z,7301.00
2022-08-10T08:59:31.683Z,7338.00
2022-08-10T09:00:31.650Z,7338.00
2022-08-10T09:01:40.380Z,7257.00
2022-08-10T09:02:32.660Z,7315.00
2022-08-10T09:03:31.612Z,7365.00
2022-08-10T09:04:31.632Z,7320.00
2022-08-10T09:05:31.611Z,7370.00
2022-08-10T09:06:32.586Z,7398.00
2022-08-10T09:08:00.009Z,7346.00
2022-08-10T09:08:32.556Z,7319.00
2022-08-10T09:09:31.536Z,7286.00
2022-08-10T09:10:37.064Z,7408.00
2022-08-10T09:11:32.519Z,7450.00
2022-08-10T09:12:31.498Z,7307.00
2022-08-10T09:13:31.500Z,7323.00
2022-08-10T09:14:31.481Z,7259.00
2022-08-10T09:15:40.563Z,7144.00
2022-08-10T09:16:32.459Z,6912.00
2022-08-10T09:17:31.430Z,7009.00
2022-08-10T09:18:31.418Z,7169.00
2022-08-10T09:19:36.375Z,7208.00
2022-08-10T09:20:32.403Z,7433.00
2022-08-10T09:21:31.409Z,7452.00
2022-08-10T09:22:31.369Z,7229.00
2022-08-10T09:24:04.038Z,7272.00
2022-08-10T09:24:32.339Z,7349.00
2022-08-10T09:25:31.347Z,7398.00
2022-08-10T09:26:31.360Z,7506.00
2022-08-10T09:27:32.307Z,7489.00
2022-08-10T09:28:31.298Z,7521.00
2022-08-10T09:29:32.463Z,7397.00
2022-08-10T09:30:32.154Z,7568.00
2022-08-10T09:31:31.270Z,7583.00
2022-08-10T09:36:19.475Z,7502.00
2022-08-10T09:36:22.615Z,7488.00
2022-08-10T09:36:26.172Z,7618.00
2022-08-10T09:36:26.582Z,7534.00
2022-08-10T09:36:33.770Z,7624.00
2022-08-10T09:37:58.680Z,7589.00
2022-08-10T09:38:32.357Z,7632.00
2022-08-10T09:40:06.691Z,7450.00
2022-08-10T09:40:59.414Z,7398.00
2022-08-10T09:41:32.174Z,7516.00
2022-08-10T09:42:31.103Z,7623.00
2022-08-10T09:43:31.089Z,7651.00
2022-08-10T09:44:31.394Z,7747.00
2022-08-10T09:45:31.051Z,7814.00
2022-08-10T09:46:31.045Z,7875.00
2022-08-10T09:48:00.110Z,7855.00
2022-08-10T09:48:32.015Z,7789.00
2022-08-10T09:49:53.913Z,7798.00
2022-08-10T09:50:58.985Z,7807.00
2022-08-10T09:51:45.207Z,7807.00
2022-08-10T09:52:32.032Z,7811.00
2022-08-10T09:53:30.967Z,7820.00
2022-08-10T09:54:30.976Z,7826.00
2022-08-10T09:56:18.182Z,7820.00
2022-08-10T09:56:31.918Z,7840.00
2022-08-10T09:57:44.597Z,7781.00
2022-08-10T09:58:31.877Z,7744.00
2022-08-10T10:00:01.145Z,7796.00
2022-08-10T10:00:31.857Z,7804.00
2022-08-10T10:02:00.499Z,7813.00
2022-08-10T10:02:31.841Z,7808.00
2022-08-10T10:03:30.872Z,7820.00
2022-08-10T10:04:30.960Z,7799.00
2022-08-10T10:05:30.834Z,7817.00
2022-08-10T10:06:30.779Z,7787.00
2022-08-10T10:07:30.787Z,7789.00
2022-08-10T10:08:30.765Z,7801.00
2022-08-10T10:09:30.743Z,7808.00
2022-08-10T10:10:30.725Z,7833.00
2022-08-10T10:11:30.755Z,7846.00
2022-08-10T10:12:30.693Z,7846.00
2022-08-10T10:14:01.933Z,7862.00
2022-08-10T10:14:31.687Z,7887.00
2022-08-10T10:15:30.663Z,7894.00
2022-08-10T10:16:30.659Z,7907.00
2022-08-10T10:17:30.764Z,7923.00
2022-08-10T10:18:30.616Z,7933.00
2022-08-10T10:19:30.628Z,7945.00
2022-08-10T10:20:30.586Z,7962.00
2022-08-10T10:21:54.163Z,8057.00
2022-08-10T10:22:31.614Z,8068.00
2022-08-10T10:23:30.557Z,7986.00
2022-08-10T10:24:30.543Z,7940.00
2022-08-10T10:25:50.926Z,7942.00
2022-08-10T10:26:31.532Z,7974.00
2022-08-10T10:27:30.504Z,8009.00
2022-08-10T10:28:57.501Z,7728.00
2022-08-10T10:29:56.941Z,7822.00
2022-08-10T10:30:31.460Z,7857.00
2022-08-10T10:31:30.465Z,7755.00
2022-08-10T10:32:36.641Z,7865.00
2022-08-10T10:33:31.475Z,7888.00
2022-08-10T10:34:30.419Z,7893.00
2022-08-10T10:35:30.413Z,7976.00
2022-08-10T10:36:30.399Z,8026.00
2022-08-10T10:38:02.989Z,8067.00
2022-08-10T10:38:31.355Z,8129.00
2022-08-10T10:39:30.453Z,8131.00
2022-08-10T10:40:30.326Z,8125.00
2022-08-10T10:41:30.358Z,8136.00
2022-08-10T10:42:46.620Z,8153.00
2022-08-10T10:43:31.307Z,8159.00
2022-08-10T10:44:30.664Z,8135.00
2022-08-10T10:45:30.272Z,8093.00
2022-08-10T10:46:30.249Z,8088.00
2022-08-10T10:47:30.257Z,8100.00
2022-08-10T10:48:30.219Z,8064.00
2022-08-10T10:49:30.233Z,8090.00
2022-08-10T10:50:30.242Z,8082.00
2022-08-10T10:51:30.191Z,8093.00
2022-08-10T10:52:30.186Z,8106.00
2022-08-10T10:53:30.161Z,8091.00
2022-08-10T10:54:30.141Z,8086.00
2022-08-10T10:55:30.157Z,8099.00
2022-08-10T10:56:30.166Z,8112.00
2022-08-10T10:57:59.494Z,8115.00
2022-08-10T10:58:31.094Z,8130.00
2022-08-10T10:59:54.936Z,8154.00
2022-08-10T11:00:31.067Z,8155.00
2022-08-10T11:01:30.118Z,8169.00
2022-08-10T11:02:30.169Z,8160.00
2022-08-10T11:03:30.033Z,8168.00
2022-08-10T11:04:30.034Z,8147.00
2022-08-10T11:05:30.007Z,8146.00
2022-08-10T11:06:39.775Z,8148.00
2022-08-10T11:07:33.655Z,8143.00
2022-08-10T11:08:29.980Z,8139.00
2022-08-10T11:10:06.089Z,8178.00
2022-08-10T11:10:32.414Z,8175.00
2022-08-10T11:12:00.103Z,8201.00
2022-08-10T11:12:30.910Z,8241.00
2022-08-10T11:14:26.144Z,8254.00
2022-08-10T11:14:31.025Z,8290.00
2022-08-10T11:15:29.880Z,8278.00
2022-08-10T11:16:29.875Z,8314.00
2022-08-10T11:17:29.843Z,8331.00
2022-08-10T11:18:29.832Z,8352.00
2022-08-10T11:20:02.554Z,8404.00
2022-08-10T11:20:30.803Z,8436.00
2022-08-10T11:21:29.817Z,8475.00
2022-08-10T11:22:29.789Z,8506.00
2022-08-10T11:23:30.765Z,8538.00
2022-08-10T11:24:49.060Z,8559.00
2022-08-10T11:25:30.763Z,8606.00
2022-08-10T11:26:29.726Z,8669.00
2022-08-10T11:27:29.732Z,8771.00
2022-08-10T11:28:29.712Z,8910.00
2022-08-10T11:29:29.687Z,9113.00
2022-08-10T11:30:29.707Z,9369.00
2022-08-10T11:31:29.683Z,9617.00
2022-08-10T11:32:29.648Z,9832.00
2022-08-10T11:33:32.973Z,10077.00
2022-08-10T11:34:48.851Z,10237.00
2022-08-10T11:35:34.740Z,10361.00
2022-08-10T11:36:29.613Z,10449.00
2022-08-10T11:37:29.582Z,10576.00
2022-08-10T11:38:42.795Z,10648.00
2022-08-10T11:39:30.634Z,10765.00
2022-08-10T11:40:29.542Z,10955.00
2022-08-10T11:42:08.884Z,11144.00
2022-08-10T11:42:35.855Z,11554.00
2022-08-10T11:43:30.534Z,12321.00
2022-08-10T11:44:29.518Z,12546.00
2022-08-10T11:45:29.484Z,12640.00
2022-08-10T11:46:29.466Z,12631.00
2022-08-10T11:47:29.499Z,12798.00
2022-08-10T11:48:53.462Z,13010.00
2022-08-10T11:49:30.449Z,13598.00
2022-08-10T11:50:29.423Z,13808.00
2022-08-10T11:51:29.440Z,13631.00
2022-08-10T11:52:29.423Z,13849.00
2022-08-10T11:53:38.817Z,14301.00
2022-08-10T11:54:30.361Z,14390.00
2022-08-10T11:55:29.393Z,14438.00
2022-08-10T11:56:29.341Z,16166.00
2022-08-10T11:57:53.482Z,17598.00
2022-08-10T11:58:30.356Z,16505.00
2022-08-10T11:59:29.304Z,15833.00
2022-08-10T12:00:29.467Z,16607.00
2022-08-10T12:01:29.294Z,16934.00
2022-08-10T12:02:29.384Z,17312.00
2022-08-10T12:03:34.044Z,18529.00
2022-08-10T12:04:30.248Z,20842.00
2022-08-10T12:05:51.493Z,21901.00
2022-08-10T12:06:54.055Z,22680.00
2022-08-10T12:10:05.656Z,21901.00
2022-08-10T12:10:10.417Z,22656.00
2022-08-10T12:10:11.667Z,21637.00
2022-08-10T12:10:30.171Z,19911.00
2022-08-10T12:11:29.151Z,18469.00
2022-08-10T12:12:29.142Z,18276.00
2022-08-10T12:13:29.118Z,18731.00
2022-08-10T12:14:29.219Z,19264.00
2022-08-10T12:15:29.112Z,19038.00
2022-08-10T12:16:29.093Z,19315.00
2022-08-10T12:17:29.071Z,20899.00
2022-08-10T12:18:29.050Z,22893.00
2022-08-10T12:19:29.056Z,24102.00
2022-08-10T12:20:29.045Z,25426.00
2022-08-10T12:21:29.054Z,35280.00
2022-08-10T12:22:29.016Z,65451.00
2022-08-10T12:24:38.284Z,71436.00
2022-08-10T12:24:42.986Z,70877.00
2022-08-10T12:25:57.551Z,61811.00
2022-08-10T12:26:43.945Z,61681.00